Time;durP1;ratioP1;P1;durP2;ratioP2;P2;SDS_P1;SDS_P2;PMS_P1;PMS_P2;Temp;Humidity;BMP_temperature;BMP_pressure;BME280_temperature;BME280_humidity;BME280_pressure;Samples;Min_cycle;Max_cycle;Signal;HPM_P1;HPM_P2
2021/09/23 00:00:17;;;;;;;17.80;11.23;;;;;;;14.48;67.65;102200.06;5114588;28;20031;-54
2021/09/23 00:05:18;;;;;;;17.67;9.80;;;;;;;14.46;67.91;102199.50;5112700;28;20109;-54
2021/09/23 00:07:47;;;;;;;17.27;11.52;;;;;;;14.45;67.67;102194.25;5110296;28;20398;-56
2021/09/23 00:10:21;;;;;;;19.70;11.45;;;;;;;14.44;67.73;102190.69;5111561;28;20047;-56
2021/09/23 00:12:50;;;;;;;17.92;10.55;;;;;;;14.44;67.76;102174.25;5113978;28;20043;-55
2021/09/23 00:15:18;;;;;;;20.60;10.77;;;;;;;14.46;67.87;102171.25;5110474;28;20055;-56
2021/09/23 00:17:51;;;;;;;21.73;13.63;;;;;;;14.47;67.35;102172.88;5103626;28;20047;-57
2021/09/23 00:20:22;;;;;;;18.95;13.40;;;;;;;14.44;67.28;102168.75;5113703;28;20059;-57
2021/09/23 00:22:50;;;;;;;20.63;12.95;;;;;;;14.40;67.23;102164.88;5113652;28;20042;-56
2021/09/23 00:25:18;;;;;;;16.98;11.25;;;;;;;14.32;67.47;102165.34;5113036;28;20036;-54
2021/09/23 00:28:02;;;;;;;16.75;11.82;;;;;;;14.26;67.41;102166.38;5112403;28;20067;-57
2021/09/23 00:30:30;;;;;;;18.38;12.30;;;;;;;14.20;67.71;102167.44;5112171;28;20567;-55
2021/09/23 00:33:11;;;;;;;15.52;9.60;;;;;;;14.18;68.30;102175.09;5112429;28;20050;-57
2021/09/23 00:35:39;;;;;;;16.20;9.73;;;;;;;14.23;68.40;102165.00;5111243;28;20051;-52
2021/09/23 00:38:06;;;;;;;13.48;9.30;;;;;;;14.30;68.29;102155.75;5111509;28;20051;-54
2021/09/23 00:40:34;;;;;;;15.25;9.95;;;;;;;14.34;68.04;102165.09;5112706;28;20063;-54
2021/09/23 00:43:04;;;;;;;16.70;10.57;;;;;;;14.37;68.19;102162.66;5113100;28;20110;-51
2021/09/23 00:45:32;;;;;;;15.88;9.90;;;;;;;14.39;68.04;102157.75;5111243;28;20048;-56
2021/09/23 00:48:00;;;;;;;17.30;10.10;;;;;;;14.40;67.78;102155.81;5110110;28;20523;-56
2021/09/23 00:50:28;;;;;;;16.52;9.85;;;;;;;14.41;67.93;102155.56;5112067;28;20135;-57
2021/09/23 00:53:04;;;;;;;;;;;;;;;14.44;69.05;102152.28;5111705;28;20536;-56
2021/09/23 00:55:32;;;;;;;16.63;10.27;;;;;;;14.44;67.97;102148.75;5113278;28;19927;-56
2021/09/23 00:58:00;;;;;;;15.52;11.02;;;;;;;14.45;67.67;102148.47;5108135;28;20036;-55
2021/09/23 01:00:30;;;;;;;19.00;12.93;;;;;;;14.40;67.06;102162.13;5112098;28;20476;-56
2021/09/23 01:03:05;;;;;;;21.42;14.30;;;;;;;14.32;67.37;102168.09;5111591;28;20063;-56
2021/09/23 01:05:34;;;;;;;23.15;14.30;;;;;;;14.28;67.47;102172.44;5109406;28;20052;-56
2021/09/23 01:08:02;;;;;;;19.63;12.63;;;;;;;14.24;67.50;102168.59;5112599;28;20050;-57
2021/09/23 01:10:30;;;;;;;16.75;10.57;;;;;;;14.26;67.71;102160.91;5110529;28;20122;-53
2021/09/23 01:12:58;;;;;;;17.00;10.13;;;;;;;14.28;67.56;102147.75;5108356;28;20035;-54
2021/09/23 01:15:35;;;;;;;16.17;11.43;;;;;;;14.28;67.35;102142.28;5111274;28;20893;-55
2021/09/23 01:18:03;;;;;;;17.67;11.95;;;;;;;14.22;67.70;102133.19;5107540;28;20040;-54
2021/09/23 01:20:31;;;;;;;19.40;11.50;;;;;;;14.20;67.46;102134.53;5103301;28;20114;-57
2021/09/23 01:23:00;;;;;;;19.10;12.52;;;;;;;14.14;67.58;102130.94;5101691;28;20047;-56
2021/09/23 01:25:37;;;;;;;17.23;11.63;;;;;;;14.09;67.91;102130.03;5110923;28;20138;-56
2021/09/23 01:28:06;;;;;;;18.40;12.15;;;;;;;14.04;67.95;102137.13;5109517;28;20047;-54
2021/09/23 01:30:52;;;;;;;15.93;10.52;;;;;;;14.02;68.60;102127.50;5109388;28;20044;-56
2021/09/23 01:33:20;;;;;;;17.30;11.60;;;;;;;13.98;68.53;102120.91;5111059;28;20091;-56
2021/09/23 01:35:48;;;;;;;16.95;10.73;;;;;;;13.95;68.55;102121.41;5110765;28;20039;-56
2021/09/23 01:38:15;;;;;;;14.57;9.77;;;;;;;13.93;69.06;102113.47;5110334;28;20131;-55
2021/09/23 01:40:44;;;;;;;19.10;11.25;;;;;;;13.93;68.83;102110.72;5099452;28;20082;-56
2021/09/23 01:43:12;;;;;;;24.08;12.77;;;;;;;13.93;68.95;102113.47;5111093;28;20051;-57
2021/09/23 01:45:40;;;;;;;17.60;11.85;;;;;;;13.93;68.72;102107.97;5110896;28;20048;-55
2021/09/23 01:48:08;;;;;;;18.58;13.63;;;;;;;13.89;68.57;102106.84;5107395;28;20762;-55
2021/09/23 01:50:38;;;;;;;17.85;12.38;;;;;;;13.88;68.82;102105.19;5100889;28;20044;-56
2021/09/23 01:53:06;;;;;;;15.77;10.23;;;;;;;13.85;68.94;102094.72;5104685;28;20036;-55
2021/09/23 01:55:34;;;;;;;17.77;11.80;;;;;;;13.84;69.65;102093.09;5106950;28;20497;-53
2021/09/23 01:58:02;;;;;;;15.75;11.20;;;;;;;13.81;69.57;102093.63;5110774;28;20131;-56
2021/09/23 02:00:35;;;;;;;17.58;11.43;;;;;;;13.78;69.88;102081.25;5096688;28;20050;-57
2021/09/23 02:03:05;;;;;;;16.10;10.23;;;;;;;13.76;69.61;102085.34;5107991;28;20054;-56
2021/09/23 02:05:52;;;;;;;17.42;10.82;;;;;;;13.75;69.81;102079.03;5098489;28;20490;-56
2021/09/23 02:08:19;;;;;;;17.75;11.95;;;;;;;13.78;69.69;102072.19;5106228;28;20529;-52
2021/09/23 02:10:48;;;;;;;21.33;12.38;;;;;;;13.82;69.50;102073.34;5109619;28;20093;-55
2021/09/23 02:13:16;;;;;;;18.02;12.35;;;;;;;13.83;69.17;102064.88;5108946;28;20559;-54
2021/09/23 02:15:43;;;;;;;21.48;14.02;;;;;;;13.79;69.27;102065.66;5110092;28;20598;-53
2021/09/23 02:18:11;;;;;;;22.48;14.07;;;;;;;13.73;69.45;102063.94;5111650;28;20040;-51
2021/09/23 02:20:40;;;;;;;22.75;14.90;;;;;;;13.67;69.32;102062.25;5108604;28;20040;-57
2021/09/23 02:23:08;;;;;;;18.00;11.85;;;;;;;13.62;69.84;102063.00;5098175;28;20054;-56
2021/09/23 02:25:40;;;;;;;17.08;12.23;;;;;;;13.66;69.59;102050.44;5106422;28;20032;-53
2021/09/23 02:28:07;;;;;;;15.70;11.02;;;;;;;13.73;70.06;102058.44;5115825;28;20569;-54
2021/09/23 02:30:35;;;;;;;18.98;12.18;;;;;;;13.76;69.78;102052.47;5112889;28;20106;-56
2021/09/23 02:33:03;;;;;;;17.58;11.20;;;;;;;13.78;69.61;102055.75;5112574;28;20118;-53
2021/09/23 02:35:31;;;;;;;18.90;12.23;;;;;;;13.79;69.25;102058.25;5114130;28;20075;-57
2021/09/23 02:37:59;;;;;;;20.70;12.10;;;;;;;13.80;69.45;102064.56;5113076;28;20379;-57
2021/09/23 02:40:27;;;;;;;18.42;12.02;;;;;;;13.80;69.40;102054.41;5115664;28;20043;-58
2021/09/23 02:42:55;;;;;;;19.80;12.35;;;;;;;13.80;69.54;102053.59;5112394;28;20046;-56
2021/09/23 02:45:22;;;;;;;17.00;10.48;;;;;;;13.79;69.64;102041.81;5114743;28;20040;-54
2021/09/23 02:47:50;;;;;;;19.92;12.15;;;;;;;13.83;69.71;102031.19;5112050;28;20135;-57
2021/09/23 02:50:18;;;;;;;17.52;11.13;;;;;;;13.86;69.65;102019.69;5081328;28;20040;-54
2021/09/23 02:52:45;;;;;;;19.65;11.75;;;;;;;13.84;69.60;102016.38;5112351;28;20056;-55
2021/09/23 02:55:13;;;;;;;17.23;11.55;;;;;;;13.84;69.46;102011.72;5114198;28;20485;-57
2021/09/23 02:57:41;;;;;;;21.25;12.77;;;;;;;13.83;69.64;101998.31;5114332;28;20035;-55
2021/09/23 03:00:09;;;;;;;16.17;11.48;;;;;;;13.83;69.75;101990.09;5112345;28;20067;-53
2021/09/23 03:02:37;;;;;;;16.88;11.73;;;;;;;13.80;69.43;101987.84;5112259;28;20044;-56
2021/09/23 03:05:06;;;;;;;18.63;12.15;;;;;;;13.77;69.58;101988.38;5113281;28;20054;-55
2021/09/23 03:07:33;;;;;;;20.15;13.57;;;;;;;13.77;69.44;101988.38;5102814;28;20119;-53
2021/09/23 03:10:01;;;;;;;17.90;11.05;;;;;;;13.76;69.48;101986.75;5109128;28;20044;-57
2021/09/23 03:12:30;;;;;;;21.58;13.35;;;;;;;13.76;69.66;101981.25;5113841;28;20043;-54
2021/09/23 03:14:57;;;;;;;18.98;11.52;;;;;;;13.73;69.78;101979.03;5111821;28;20043;-55
2021/09/23 03:17:25;;;;;;;16.52;10.90;;;;;;;13.75;70.29;101977.66;5113110;28;20044;-55
2021/09/23 03:19:53;;;;;;;24.88;12.90;;;;;;;13.72;69.68;101975.47;5112005;28;20044;-57
2021/09/23 03:22:21;;;;;;;19.23;13.25;;;;;;;13.70;69.94;101979.56;5112838;28;20035;-56
2021/09/23 03:24:49;;;;;;;22.05;13.10;;;;;;;13.67;69.98;101977.34;5111994;28;20460;-54
2021/09/23 03:27:17;;;;;;;17.55;11.80;;;;;;;13.67;70.38;101972.69;5113551;28;20040;-56
2021/09/23 03:29:45;;;;;;;15.88;10.55;;;;;;;13.68;70.24;101968.84;5113633;28;20035;-56
2021/09/23 03:32:13;;;;;;;19.08;11.20;;;;;;;13.68;70.33;101973.50;5083285;28;20060;-55
2021/09/23 03:34:40;;;;;;;18.90;12.23;;;;;;;13.70;70.52;101974.06;5112692;28;20043;-58
2021/09/23 03:37:08;;;;;;;21.95;12.95;;;;;;;13.67;70.34;101966.38;5114229;28;20119;-56
2021/09/23 03:39:35;;;;;;;18.40;11.55;;;;;;;13.70;71.00;101965.84;5114643;28;20109;-56
2021/09/23 03:42:04;;;;;;;19.05;11.68;;;;;;;13.66;70.61;101953.75;5111055;28;20529;-55
2021/09/23 03:44:31;;;;;;;20.83;11.80;;;;;;;13.61;70.66;101958.13;5114343;28;20482;-56
2021/09/23 03:46:59;;;;;;;19.10;11.90;;;;;;;13.65;71.20;101952.94;5111074;28;20047;-57
2021/09/23 03:49:27;;;;;;;18.15;10.43;;;;;;;13.66;71.04;101956.50;5113383;28;20028;-56
2021/09/23 03:51:54;;;;;;;24.17;15.00;;;;;;;13.62;70.53;101957.03;5111406;28;20055;-58
2021/09/23 03:54:22;;;;;;;17.17;11.55;;;;;;;13.59;70.09;101959.47;5113017;28;20498;-54
2021/09/23 03:56:50;;;;;;;18.13;12.32;;;;;;;13.58;70.69;101953.16;5111457;28;20043;-56
2021/09/23 03:59:18;;;;;;;17.05;11.18;;;;;;;13.59;70.96;101954.00;5113409;28;20035;-53
2021/09/23 04:01:46;;;;;;;22.05;13.05;;;;;;;13.56;70.61;101955.31;5116252;28;20040;-57
2021/09/23 04:04:14;;;;;;;18.45;11.65;;;;;;;13.56;70.82;101959.97;5116983;28;20059;-58
2021/09/23 04:06:43;;;;;;;19.00;11.27;;;;;;;13.58;70.83;101961.38;5118363;27;20547;-57
2021/09/23 04:09:15;;;;;;;25.13;13.98;;;;;;;13.55;70.85;101961.91;5116338;28;20085;-54
2021/09/23 04:11:44;;;;;;;20.63;13.18;;;;;;;13.52;70.70;101959.69;5111031;28;20062;-57
2021/09/23 04:14:12;;;;;;;20.55;11.43;;;;;;;13.52;70.91;101954.22;5112636;28;20517;-57
2021/09/23 04:16:40;;;;;;;21.25;11.65;;;;;;;13.52;70.64;101956.94;5112461;28;20040;-57
2021/09/23 04:19:14;;;;;;;21.25;12.52;;;;;;;13.48;70.36;101958.53;5083748;28;20407;-58
2021/09/23 04:21:43;;;;;;;20.10;12.93;;;;;;;13.45;70.48;101972.75;5110868;28;20154;-57
2021/09/23 04:24:14;;;;;;;22.23;12.95;;;;;;;13.45;70.68;101974.69;5107374;28;20062;-53
2021/09/23 04:26:44;;;;;;;22.38;14.23;;;;;;;13.43;70.27;101978.47;5104952;28;20044;-58
2021/09/23 04:29:12;;;;;;;19.05;12.43;;;;;;;13.40;70.46;101972.72;5106660;28;20044;-57
2021/09/23 04:31:40;;;;;;;19.00;14.00;;;;;;;13.38;70.95;101974.88;5098364;28;20463;-56
2021/09/23 04:34:09;;;;;;;19.92;12.23;;;;;;;13.38;71.01;101974.88;5103435;28;20071;-58
2021/09/23 04:36:36;;;;;;;24.52;13.13;;;;;;;13.38;70.73;101980.34;5112241;28;20039;-57
2021/09/23 04:39:05;;;;;;;20.02;13.02;;;;;;;13.36;70.35;101977.03;5111606;28;20042;-56
2021/09/23 04:41:33;;;;;;;21.30;14.10;;;;;;;13.38;70.61;101977.63;5111896;28;20074;-56
2021/09/23 04:44:01;;;;;;;19.35;12.18;;;;;;;13.37;71.10;101968.59;5110018;28;20036;-55
2021/09/23 04:46:29;;;;;;;19.60;12.43;;;;;;;13.38;70.61;101974.88;5090577;28;20421;-56
2021/09/23 04:49:00;;;;;;;20.65;12.88;;;;;;;13.35;70.75;101975.41;5104167;28;20367;-57
2021/09/23 04:51:28;;;;;;;18.92;11.75;;;;;;;13.33;71.35;101975.66;5111839;28;20048;-56
2021/09/23 04:53:57;;;;;;;20.88;12.15;;;;;;;13.35;71.20;101964.47;5098802;28;20111;-57
2021/09/23 04:56:25;;;;;;;19.83;12.68;;;;;;;13.35;71.13;101964.47;5111054;28;20063;-56
2021/09/23 04:58:53;;;;;;;22.02;12.68;;;;;;;13.33;71.10;101953.75;5111873;28;20439;-58
2021/09/23 05:01:24;;;;;;;19.52;12.50;;;;;;;13.33;71.23;101950.19;5109414;28;20047;-55
2021/09/23 05:03:54;;;;;;;23.75;15.98;;;;;;;13.30;71.07;101950.69;5103726;28;20532;-55
2021/09/23 05:06:22;;;;;;;20.08;13.82;;;;;;;13.22;71.18;101949.22;5104569;28;20375;-56
2021/09/23 05:08:56;;;;;;;19.40;13.00;;;;;;;13.20;71.48;101933.06;5097607;28;20043;-57
2021/09/23 05:11:25;;;;;;;19.08;13.02;;;;;;;13.20;71.69;101934.97;5109546;28;20054;-53
2021/09/23 05:13:53;;;;;;;19.83;12.80;;;;;;;13.19;71.55;101930.59;5106249;28;20039;-53
2021/09/23 05:16:22;;;;;;;18.35;11.93;;;;;;;13.20;71.98;101921.28;5103601;28;20040;-55
2021/09/23 05:18:50;;;;;;;16.35;11.52;;;;;;;13.25;72.80;101910.38;5111131;28;20114;-52
2021/09/23 05:21:18;;;;;;;17.98;12.50;;;;;;;13.23;71.65;101909.84;5109754;28;20465;-55
2021/09/23 05:23:46;;;;;;;18.60;12.75;;;;;;;13.24;71.75;101910.66;5105057;28;20417;-54
2021/09/23 05:26:13;;;;;;;20.50;12.18;;;;;;;13.22;71.63;101900.78;5110282;28;20048;-53
2021/09/23 05:28:41;;;;;;;19.90;12.02;;;;;;;13.24;72.41;101886.03;5109773;28;20040;-52
2021/09/23 05:31:08;;;;;;;17.40;11.70;;;;;;;13.27;72.70;101890.97;5107923;28;20024;-52
2021/09/23 05:33:36;;;;;;;18.50;12.68;;;;;;;13.21;71.88;101885.44;5107406;28;20046;-53
2021/09/23 05:36:04;;;;;;;17.85;13.38;;;;;;;13.21;72.01;101885.44;5108444;28;20035;-57
2021/09/23 05:38:34;;;;;;;20.63;14.00;;;;;;;13.21;72.73;101888.19;5111066;28;20391;-56
2021/09/23 05:41:01;;;;;;;20.48;12.57;;;;;;;13.21;72.41;101879.97;5096106;28;20375;-55
2021/09/23 05:43:29;;;;;;;14.35;9.02;;;;;;;13.25;72.95;101884.94;5110812;28;20039;-54
2021/09/23 05:45:56;;;;;;;16.27;10.60;;;;;;;13.31;73.20;101886.66;5109378;28;20043;-55
2021/09/23 05:48:24;;;;;;;14.82;10.38;;;;;;;13.30;72.99;101887.72;5102094;28;20040;-55
2021/09/23 05:50:52;;;;;;;16.38;11.32;;;;;;;13.33;72.65;101887.25;5106224;28;20490;-57
2021/09/23 05:53:20;;;;;;;18.23;12.50;;;;;;;13.34;72.77;101883.41;5110836;28;20197;-56
2021/09/23 05:55:48;;;;;;;17.75;11.13;;;;;;;13.36;72.72;101873.03;5107893;28;20043;-56
2021/09/23 05:58:16;;;;;;;14.13;9.40;;;;;;;13.42;73.23;101867.34;5107312;28;20119;-58
2021/09/23 06:00:43;;;;;;;17.83;10.95;;;;;;;13.48;72.77;101868.19;5109831;28;20050;-53
2021/09/23 06:03:11;;;;;;;15.18;10.43;;;;;;;13.42;73.01;101867.34;5110593;28;20069;-53
2021/09/23 06:05:39;;;;;;;12.98;8.32;;;;;;;13.46;73.62;101870.34;5111605;28;20132;-56
2021/09/23 06:08:07;;;;;;;14.68;10.50;;;;;;;13.44;72.75;101880.75;5111469;28;20131;-56
2021/09/23 06:10:34;;;;;;;17.30;12.00;;;;;;;13.40;72.66;101874.16;5107400;28;20462;-57
2021/09/23 06:13:02;;;;;;;14.15;9.50;;;;;;;13.41;73.32;101871.13;5110457;28;20042;-53
2021/09/23 06:15:30;;;;;;;12.27;8.52;;;;;;;13.50;73.66;101857.00;5103900;28;20576;-57
2021/09/23 06:17:57;;;;;;;21.02;12.77;;;;;;;13.49;73.44;101858.88;5111622;28;20042;-55
2021/09/23 06:20:25;;;;;;;19.50;12.77;;;;;;;13.50;73.31;101862.47;5109550;28;20039;-52
2021/09/23 06:22:55;;;;;;;21.95;12.15;;;;;;;13.52;73.48;101850.16;5111830;28;20126;-55
2021/09/23 06:25:23;;;;;;;20.38;12.95;;;;;;;13.51;73.22;101853.97;5111136;28;20044;-56
2021/09/23 06:27:51;;;;;;;19.02;10.60;;;;;;;13.52;73.65;101861.13;5107701;28;20067;-57
2021/09/23 06:30:18;;;;;;;22.38;13.57;;;;;;;13.53;73.09;101865.50;5101406;28;20379;-51
2021/09/23 06:32:46;;;;;;;27.30;14.75;;;;;;;13.57;73.44;101863.06;5098522;28;20114;-52
2021/09/23 06:35:14;;;;;;;14.30;8.60;;;;;;;13.62;73.91;101872.13;5108552;28;20097;-54
2021/09/23 06:37:48;;;;;;;20.73;11.27;;;;;;;13.66;73.56;101866.13;5111409;28;20077;-55
2021/09/23 06:40:16;;;;;;;17.52;11.48;;;;;;;13.69;74.07;101865.63;5110833;28;20079;-56
2021/09/23 06:42:45;;;;;;;17.67;11.68;;;;;;;13.66;73.73;101857.91;5095504;28;20131;-52
2021/09/23 06:45:13;;;;;;;15.02;11.05;;;;;;;13.81;73.93;101858.03;5110290;28;20063;-57
2021/09/23 06:47:41;;;;;;;14.55;10.65;;;;;;;13.85;73.91;101856.38;5111252;28;20058;-56
2021/09/23 06:50:09;;;;;;;15.23;9.77;;;;;;;13.89;73.85;101860.25;5109415;28;20110;-53
2021/09/23 06:52:37;;;;;;;21.08;11.68;;;;;;;13.91;74.05;101855.34;5111142;28;20079;-55
2021/09/23 06:55:05;;;;;;;23.85;14.10;;;;;;;13.89;74.05;101859.44;5109469;28;20174;-55
2021/09/23 06:57:33;;;;;;;17.58;8.35;;;;;;;13.91;74.38;101851.78;5110577;28;20048;-54
2021/09/23 07:00:19;;;;;;;21.20;13.93;;;;;;;13.97;74.45;101857.00;5110158;28;20040;-55
2021/09/23 07:03:05;;;;;;;21.70;13.57;;;;;;;14.01;74.83;101860.88;5111050;28;20043;-52
2021/09/23 07:05:51;;;;;;;24.17;13.50;;;;;;;14.01;74.99;101858.13;5105544;28;20051;-55
2021/09/23 07:08:20;;;;;;;27.27;15.77;;;;;;;14.01;75.16;101855.38;5097118;28;20044;-54
2021/09/23 07:10:50;;;;;;;23.67;15.63;;;;;;;14.02;75.85;101865.28;5108149;28;20133;-55
2021/09/23 07:13:18;;;;;;;18.77;10.23;;;;;;;13.97;75.68;101867.16;5112661;28;20054;-54
2021/09/23 07:15:46;;;;;;;23.48;16.55;;;;;;;13.94;76.09;101864.94;5109837;28;20044;-52
2021/09/23 07:18:14;;;;;;;21.83;11.23;;;;;;;13.95;76.27;101870.16;5107501;28;20455;-51
2021/09/23 07:20:41;;;;;;;24.30;13.90;;;;;;;13.98;76.68;101869.63;5113177;28;20040;-53
2021/09/23 07:23:09;;;;;;;20.35;13.70;;;;;;;14.03;76.77;101869.66;5113267;28;20067;-54
2021/09/23 07:25:37;;;;;;;18.55;11.52;;;;;;;14.05;76.45;101863.91;5114249;28;20077;-54
2021/09/23 07:28:06;;;;;;;19.38;8.60;;;;;;;14.13;76.81;101855.19;5112993;28;20044;-55
2021/09/23 07:30:34;;;;;;;20.75;11.77;;;;;;;14.27;77.11;101848.13;5111283;28;20397;-59
2021/09/23 07:33:02;;;;;;;26.60;16.00;;;;;;;14.19;77.11;101848.66;5114399;28;20449;-54
2021/09/23 07:35:30;;;;;;;23.25;15.98;;;;;;;14.17;77.41;101839.03;5114041;28;20066;-57
2021/09/23 07:37:57;;;;;;;26.83;19.77;;;;;;;14.26;77.63;101834.66;5112999;28;20044;-56
2021/09/23 07:40:25;;;;;;;25.67;12.77;;;;;;;14.24;77.40;101823.19;5110622;28;20550;-57
2021/09/23 07:42:53;;;;;;;18.60;10.85;;;;;;;14.22;77.75;101820.69;5093947;28;20112;-51
2021/09/23 07:45:21;;;;;;;24.55;16.00;;;;;;;14.26;77.46;101824.56;5067308;28;20091;-54
2021/09/23 07:47:49;;;;;;;19.92;13.65;;;;;;;14.40;77.25;101827.59;5100469;28;20040;-57
2021/09/23 07:50:16;;;;;;;20.05;13.23;;;;;;;14.34;77.15;101823.22;5096268;28;20038;-57
2021/09/23 07:52:44;;;;;;;25.92;18.17;;;;;;;14.32;78.56;101830.88;5099807;28;20039;-56
2021/09/23 07:55:12;;;;;;;27.33;17.23;;;;;;;14.37;78.39;101833.63;5096886;28;20047;-56
2021/09/23 07:57:39;;;;;;;19.63;12.65;;;;;;;14.45;77.05;101827.59;5098509;28;20051;-53
2021/09/23 08:00:08;;;;;;;46.42;16.83;;;;;;;14.56;76.96;101814.81;5098061;28;20390;-56
2021/09/23 08:02:43;;;;;;;26.77;16.05;;;;;;;14.49;77.88;101815.03;5101384;28;20456;-58
2021/09/23 08:05:15;;;;;;;30.48;17.73;;;;;;;14.51;78.33;101813.94;5109871;28;20048;-56
2021/09/23 08:07:45;;;;;;;29.77;15.70;;;;;;;14.64;76.99;101800.53;5112747;28;20048;-58
2021/09/23 08:10:13;;;;;;;29.65;14.68;;;;;;;14.63;77.95;101803.56;5113167;28;20063;-56
2021/09/23 08:12:41;;;;;;;30.23;17.13;;;;;;;14.68;77.60;101798.09;5098298;28;20375;-58
2021/09/23 08:15:10;;;;;;;30.08;21.25;;;;;;;14.78;78.48;101787.13;5099268;28;20477;-56
2021/09/23 08:17:57;;;;;;;32.28;23.10;;;;;;;14.63;82.27;101785.19;5104573;28;20043;-57
2021/09/23 08:20:48;;;;;;;25.92;18.23;;;;;;;14.60;83.05;101785.75;5097984;28;20108;-58
2021/09/23 08:23:18;;;;;;;31.90;13.52;;;;;;;14.82;78.40;101780.00;5103727;28;20040;-57
2021/09/23 08:25:46;;;;;;;26.48;13.68;;;;;;;14.79;82.36;101786.06;5111268;28;20048;-56
2021/09/23 08:28:14;;;;;;;32.75;22.10;;;;;;;14.74;83.77;101782.47;5102750;28;20043;-59
2021/09/23 08:30:44;;;;;;;28.52;17.55;;;;;;;14.80;83.13;101776.72;5109361;28;20035;-58
2021/09/23 08:33:13;;;;;;;25.00;12.70;;;;;;;14.91;80.57;101761.06;5110436;28;20047;-58
2021/09/23 08:35:42;;;;;;;32.72;19.70;;;;;;;14.93;83.11;101774.53;5109388;28;20056;-55
2021/09/23 08:38:11;;;;;;;28.48;15.73;;;;;;;14.93;82.53;101766.28;5105702;28;20055;-58
2021/09/23 08:40:40;;;;;;;32.38;20.23;;;;;;;14.94;83.15;101759.72;5111444;28;20138;-53
2021/09/23 08:43:07;;;;;;;36.40;19.92;;;;;;;15.06;81.87;101763.81;5107815;28;20063;-56
2021/09/23 08:45:35;;;;;;;29.58;20.15;;;;;;;15.02;83.86;101770.94;5077978;28;20115;-56
2021/09/23 08:48:03;;;;;;;32.40;17.48;;;;;;;15.02;83.34;101772.88;5097933;28;20028;-59
2021/09/23 08:50:32;;;;;;;33.08;20.45;;;;;;;15.04;83.36;101767.94;5105260;28;20055;-57
2021/09/23 08:53:01;;;;;;;35.55;21.60;;;;;;;15.01;84.22;101776.69;5106735;28;20052;-56
2021/09/23 08:55:31;;;;;;;31.27;20.92;;;;;;;15.01;83.91;101765.72;5101120;28;20462;-55
2021/09/23 08:58:04;;;;;;;29.65;20.30;;;;;;;15.04;83.09;101770.69;5105966;28;20039;-58
2021/09/23 09:00:58;;;;;;;30.80;15.63;;;;;;;15.06;82.20;101768.50;5106635;28;20031;-56
2021/09/23 09:03:27;;;;;;;32.75;21.60;;;;;;;15.11;83.05;101772.06;5108075;28;20047;-56
2021/09/23 09:06:09;;;;;;;35.75;21.80;;;;;;;15.11;83.81;101777.53;5107559;28;20559;-54
2021/09/23 09:09:20;;;;;;;35.50;23.00;;;;;;;15.16;83.65;101789.63;5028376;28;20192;-57
2021/09/23 09:12:12;;;;;;;27.27;16.02;;;;;;;15.19;82.60;101778.91;5028631;28;20072;-52
2021/09/23 09:14:42;;;;;;;;;;;;;;;15.19;83.84;101789.06;5029649;28;20072;-54
2021/09/23 09:17:10;;;;;;;31.90;22.08;;;;;;;15.24;83.89;101798.13;5028067;28;19924;-57
2021/09/23 09:19:59;;;;;;;16.40;8.77;;;;;;;15.28;80.32;101788.25;5030218;28;20067;-57
2021/09/23 09:22:29;;;;;;;30.70;21.50;;;;;;;15.29;83.17;101789.06;5015239;28;20152;-58
2021/09/23 09:25:00;;;;;;;27.73;18.98;;;;;;;15.27;83.86;101780.28;5012587;28;20060;-58
2021/09/23 09:27:33;;;;;;;27.55;19.67;;;;;;;15.27;84.07;101777.53;5035123;28;20059;-57
2021/09/23 09:30:08;;;;;;;28.63;18.35;;;;;;;15.31;83.74;101782.19;5033825;28;20095;-58
2021/09/23 09:32:44;;;;;;;29.65;17.98;;;;;;;15.32;83.31;101783.84;5031956;28;20052;-56
2021/09/23 09:35:17;;;;;;;27.38;17.40;;;;;;;15.39;83.53;101793.72;5017127;28;20079;-57
2021/09/23 09:37:48;;;;;;;26.35;17.92;;;;;;;15.48;82.52;101776.41;5029745;28;20486;-57
2021/09/23 09:40:19;;;;;;;26.13;16.75;;;;;;;15.52;82.18;101782.16;5028671;28;20132;-57
2021/09/23 09:42:49;;;;;;;29.77;17.58;;;;;;;15.54;81.95;101782.72;5030015;28;20128;-58
2021/09/23 09:45:19;;;;;;;27.33;17.08;;;;;;;15.59;81.76;101776.41;5056458;28;20066;-58
2021/09/23 09:47:55;;;;;;;27.20;16.55;;;;;;;15.63;81.13;101778.28;5102667;28;20174;-56
2021/09/23 09:50:26;;;;;;;29.35;19.52;;;;;;;15.66;80.70;101783.25;5103213;28;20093;-58
2021/09/23 09:52:58;;;;;;;18.83;12.18;;;;;;;15.63;80.28;101772.78;5104509;28;20043;-57
2021/09/23 09:55:29;;;;;;;26.27;16.30;;;;;;;15.68;80.82;101775.53;5104477;28;20120;-57
2021/09/23 09:57:58;;;;;;;29.92;17.42;;;;;;;15.70;80.27;101765.09;5108912;28;20047;-58
2021/09/23 10:00:27;;;;;;;26.23;17.70;;;;;;;15.69;80.49;101766.19;5108298;28;20074;-57
2021/09/23 10:02:55;;;;;;;28.88;17.70;;;;;;;15.76;79.82;101772.25;5110649;28;20103;-56
2021/09/23 10:05:32;;;;;;;28.02;15.95;;;;;;;15.75;79.96;101759.63;5109875;28;20087;-53
2021/09/23 10:08:03;;;;;;;27.95;17.30;;;;;;;15.81;79.30;101767.84;5110395;28;20048;-54
2021/09/23 10:10:32;;;;;;;26.60;17.60;;;;;;;15.77;79.73;101760.13;5082651;28;20052;-57
2021/09/23 10:13:05;;;;;;;24.17;15.07;;;;;;;15.78;79.45;101769.22;5107732;28;20472;-56
2021/09/23 10:15:33;;;;;;;23.95;16.52;;;;;;;15.81;79.77;101756.84;5108591;28;20035;-57
2021/09/23 10:18:03;;;;;;;20.92;14.05;;;;;;;15.80;79.80;101755.19;5100560;28;20044;-55
2021/09/23 10:20:35;;;;;;;25.50;15.75;;;;;;;15.77;79.67;101754.63;5095729;28;20050;-50
2021/09/23 10:23:05;;;;;;;25.20;16.55;;;;;;;15.79;80.28;101756.31;5095732;28;20044;-53
2021/09/23 10:25:35;;;;;;;25.40;14.38;;;;;;;15.77;79.91;101743.66;5097949;28;20505;-58
2021/09/23 10:28:07;;;;;;;20.25;13.20;;;;;;;15.86;80.00;101741.16;5095408;28;20051;-56
2021/09/23 10:30:42;;;;;;;21.23;14.30;;;;;;;15.92;80.01;101739.19;5089110;28;20039;-56
2021/09/23 10:33:13;;;;;;;17.98;12.52;;;;;;;16.00;79.76;101738.63;5094541;28;20075;-56
2021/09/23 10:35:41;;;;;;;23.48;16.33;;;;;;;16.10;79.77;101744.06;5098975;28;20032;-57
2021/09/23 10:38:15;;;;;;;24.98;17.15;;;;;;;16.19;78.91;101747.88;5095799;28;20047;-56
2021/09/23 10:40:44;;;;;;;27.23;16.40;;;;;;;16.24;79.21;101743.47;5087471;28;20051;-54
2021/09/23 10:43:18;;;;;;;24.25;14.93;;;;;;;16.32;78.04;101738.16;5095094;28;20029;-55
2021/09/23 10:45:54;;;;;;;20.48;12.93;;;;;;;16.41;77.62;101749.41;5096888;28;20063;-57
2021/09/23 10:48:25;;;;;;;18.65;11.38;;;;;;;16.47;76.95;101745.50;5099043;28;20070;-57
2021/09/23 10:50:55;;;;;;;19.35;11.32;;;;;;;16.50;75.27;101735.84;5101214;28;20517;-56
2021/09/23 10:53:24;;;;;;;15.70;8.57;;;;;;;16.53;74.67;101733.38;5100942;28;20379;-54
2021/09/23 10:56:07;;;;;;;20.08;10.38;;;;;;;16.56;74.27;101746.53;5094255;28;20509;-55
2021/09/23 10:58:42;;;;;;;17.50;9.70;;;;;;;16.56;73.72;101741.03;5099372;28;20044;-52
2021/09/23 11:01:21;;;;;;;22.52;10.60;;;;;;;16.55;74.44;101735.84;5090575;28;20466;-54
2021/09/23 11:03:51;;;;;;;12.57;6.18;;;;;;;16.56;73.73;101752.03;4404489;27;10000483;-57
2021/09/23 11:06:32;;;;;;;17.55;9.23;;;;;;;16.61;73.24;101754.75;5098389;28;20040;-57
2021/09/23 11:09:17;;;;;;;14.05;9.55;;;;;;;16.64;73.47;101747.03;5105255;28;20103;-58
2021/09/23 11:11:53;;;;;;;16.13;9.35;;;;;;;16.65;73.58;101751.44;5089782;28;20097;-57
2021/09/23 11:14:22;;;;;;;17.65;8.52;;;;;;;16.68;73.16;101753.63;5090689;28;20040;-57
2021/09/23 11:16:55;;;;;;;12.70;6.15;;;;;;;16.70;72.41;101752.22;5096541;28;20046;-57
2021/09/23 11:19:25;;;;;;;14.38;7.68;;;;;;;16.71;71.79;101748.34;5095217;28;20054;-58
2021/09/23 11:21:58;;;;;;;15.20;7.68;;;;;;;16.72;72.03;101760.19;5095548;28;20054;-54
2021/09/23 11:24:27;;;;;;;15.52;7.03;;;;;;;16.72;72.38;101746.44;5094168;28;20036;-57